createdAt,value
2018-02-10T00:01:55.835Z,65.62
2018-02-10T00:04:22.416Z,63.65
2018-02-10T00:06:49.008Z,62.38
2018-02-10T00:09:15.839Z,66.15
2018-02-10T00:11:42.428Z,62.97
2018-02-10T00:14:09.018Z,58.38
2018-02-10T00:16:35.637Z,62.47
2018-02-10T00:19:02.212Z,60.88
2018-02-10T00:21:28.808Z,61.85
2018-02-10T00:23:55.416Z,62.30
2018-02-10T00:26:21.998Z,61.17
2018-02-10T00:28:48.580Z,64.45
2018-02-10T00:31:15.479Z,62.92
2018-02-10T00:33:42.072Z,57.67
2018-02-10T00:36:08.655Z,62.70
2018-02-10T00:38:35.350Z,63.58
2018-02-10T00:41:01.936Z,62.20
2018-02-10T00:43:28.523Z,59.38
2018-02-10T00:45:55.107Z,67.25
2018-02-10T00:48:21.699Z,67.20
2018-02-10T00:50:48.547Z,60.92
2018-02-10T00:53:15.122Z,62.00
2018-02-10T00:55:41.716Z,61.00
2018-02-10T00:58:08.328Z,63.15
2018-02-10T01:00:34.911Z,63.10
2018-02-10T01:03:01.501Z,63.65
2018-02-10T01:05:28.111Z,64.43
2018-02-10T01:07:54.699Z,61.85
2018-02-10T01:10:21.283Z,61.03
2018-02-10T01:12:47.892Z,58.90
2018-02-10T01:15:14.478Z,59.95
2018-02-10T01:17:41.068Z,61.72
2018-02-10T01:20:07.874Z,61.58
2018-02-10T01:22:34.464Z,60.38
2018-02-10T01:25:01.051Z,59.60
2018-02-10T01:27:27.666Z,58.25
2018-02-10T01:29:54.251Z,60.85
2018-02-10T01:32:20.840Z,59.97
2018-02-10T01:34:47.439Z,61.35
2018-02-10T01:37:14.028Z,60.25
2018-02-10T01:39:40.607Z,58.45
2018-02-10T01:42:07.212Z,60.70
2018-02-10T01:44:33.799Z,57.08
2018-02-10T01:47:00.393Z,60.58
2018-02-10T01:49:26.995Z,59.97
2018-02-10T01:51:53.574Z,57.45
2018-02-10T01:54:20.168Z,60.20
2018-02-10T01:56:46.778Z,57.33
2018-02-10T01:59:13.371Z,59.85
2018-02-10T02:01:39.955Z,57.20
2018-02-10T02:04:06.567Z,56.85
2018-02-10T02:06:33.160Z,57.10
2018-02-10T02:08:59.746Z,55.83
2018-02-10T02:11:26.715Z,58.80
2018-02-10T02:13:53.295Z,58.42
2018-02-10T02:16:19.883Z,60.10
2018-02-10T02:18:46.490Z,58.97
2018-02-10T02:21:13.079Z,56.97
2018-02-10T02:23:39.668Z,57.58
2018-02-10T02:26:06.631Z,60.15
2018-02-10T02:28:33.221Z,60.35
2018-02-10T02:30:59.806Z,59.88
2018-02-10T02:33:26.412Z,57.75
2018-02-10T02:35:53.001Z,61.90
2018-02-10T02:38:19.578Z,59.38
2018-02-10T02:40:46.442Z,61.30
2018-02-10T02:43:13.028Z,60.83
2018-02-10T02:45:39.619Z,60.33
2018-02-10T02:48:06.232Z,58.78
2018-02-10T02:50:32.803Z,57.22
2018-02-10T02:52:59.397Z,59.22
2018-02-10T02:55:25.983Z,56.13
2018-02-10T02:57:52.573Z,59.47
2018-02-10T03:00:19.153Z,58.33
2018-02-10T03:02:45.967Z,57.10
2018-02-10T03:05:12.550Z,57.53
2018-02-10T03:07:39.136Z,56.45
2018-02-10T03:10:05.743Z,58.58
2018-02-10T03:12:32.326Z,55.72
2018-02-10T03:14:58.916Z,55.85
2018-02-10T03:17:25.520Z,59.25
2018-02-10T03:19:52.116Z,58.10
2018-02-10T03:22:18.700Z,58.65
2018-02-10T03:24:45.395Z,57.00
2018-02-10T03:27:11.982Z,56.83
2018-02-10T03:29:38.558Z,57.28
2018-02-10T03:32:05.498Z,60.05
2018-02-10T03:34:32.089Z,58.63
2018-02-10T03:36:58.671Z,57.20
2018-02-10T03:39:25.607Z,60.47
2018-02-10T03:41:52.196Z,54.47
2018-02-10T03:44:18.785Z,56.85
2018-02-10T03:46:45.367Z,56.08
2018-02-10T03:49:11.960Z,56.97
2018-02-10T03:51:38.563Z,56.33
2018-02-10T03:54:05.142Z,55.12
2018-02-10T03:56:31.742Z,56.00
2018-02-10T03:58:58.338Z,55.28
2018-02-10T04:01:24.925Z,57.78
2018-02-10T04:03:51.506Z,57.05
2018-02-10T04:06:18.119Z,59.35
2018-02-10T04:08:44.706Z,56.08
2018-02-10T04:11:11.286Z,53.60
2018-02-10T04:13:37.895Z,52.40
2018-02-10T04:16:04.483Z,55.88
2018-02-10T04:18:31.068Z,56.85
2018-02-10T04:20:57.668Z,53.60
2018-02-10T04:23:24.263Z,55.50
2018-02-10T04:25:50.845Z,58.33
2018-02-10T04:28:17.446Z,56.05
2018-02-10T04:30:44.031Z,56.55
2018-02-10T04:33:10.608Z,58.58
2018-02-10T04:35:37.210Z,51.35
2018-02-10T04:38:03.795Z,54.25
2018-02-10T04:40:30.380Z,56.20
2018-02-10T04:42:56.994Z,53.35
2018-02-10T04:45:23.574Z,54.25
2018-02-10T04:47:50.160Z,51.33
2018-02-10T04:50:16.867Z,55.05
2018-02-10T04:52:43.454Z,58.10
2018-02-10T04:55:10.041Z,53.15
2018-02-10T04:57:36.655Z,54.35
2018-02-10T05:00:03.243Z,56.42
2018-02-10T05:02:29.826Z,54.03
2018-02-10T05:04:56.739Z,53.97
2018-02-10T05:07:23.319Z,49.05
2018-02-10T05:09:49.900Z,57.15
2018-02-10T05:12:16.855Z,51.25
2018-02-10T05:14:43.438Z,55.88
2018-02-10T05:17:10.027Z,57.15
2018-02-10T05:19:36.623Z,53.87
2018-02-10T05:22:03.211Z,55.90
2018-02-10T05:24:29.807Z,56.58
2018-02-10T05:26:56.497Z,54.90
2018-02-10T05:29:23.073Z,52.60
2018-02-10T05:31:49.654Z,53.67
2018-02-10T05:34:16.260Z,55.20
2018-02-10T05:36:42.843Z,53.45
2018-02-10T05:39:09.430Z,53.00
2018-02-10T05:41:36.055Z,54.67
2018-02-10T05:44:02.639Z,55.63
2018-02-10T05:46:29.215Z,55.30
2018-02-10T05:48:55.831Z,53.83
2018-02-10T05:51:22.410Z,51.65
2018-02-10T05:53:48.991Z,51.95
2018-02-10T05:56:15.606Z,51.85
2018-02-10T05:58:42.183Z,51.80
2018-02-10T06:01:08.768Z,51.35
2018-02-10T06:03:35.391Z,50.15
2018-02-10T06:06:01.974Z,56.58
2018-02-10T06:08:28.576Z,54.17
2018-02-10T06:10:55.187Z,49.58
2018-02-10T06:13:21.767Z,53.22
2018-02-10T06:15:48.357Z,53.70
2018-02-10T06:18:15.307Z,53.65
2018-02-10T06:20:41.929Z,50.95
2018-02-10T06:23:08.474Z,57.95
2018-02-10T06:25:35.066Z,51.90
2018-02-10T06:28:01.651Z,49.80
2018-02-10T06:30:28.243Z,51.33
2018-02-10T06:32:54.850Z,51.50
2018-02-10T06:35:21.439Z,48.78
2018-02-10T06:37:48.028Z,54.10
2018-02-10T06:40:14.872Z,49.33
2018-02-10T06:42:41.455Z,49.70
2018-02-10T06:45:08.043Z,51.47
2018-02-10T06:47:34.655Z,52.47
2018-02-10T06:50:01.231Z,52.67
2018-02-10T06:52:27.823Z,53.17
2018-02-10T06:54:54.414Z,51.20
2018-02-10T06:57:20.998Z,52.00
2018-02-10T06:59:47.615Z,51.00
2018-02-10T07:02:14.200Z,51.65
2018-02-10T07:04:40.783Z,47.97
2018-02-10T07:07:07.403Z,49.65
2018-02-10T07:09:33.991Z,49.13
2018-02-10T07:12:00.574Z,52.38
2018-02-10T07:14:27.175Z,50.10
2018-02-10T07:16:53.758Z,49.33
2018-02-10T07:19:20.346Z,48.80
2018-02-10T07:21:46.940Z,48.60
2018-02-10T07:24:13.529Z,51.03
2018-02-10T07:26:40.107Z,51.40
2018-02-10T07:29:07.022Z,51.05
2018-02-10T07:31:33.607Z,47.88
2018-02-10T07:34:00.189Z,47.85
2018-02-10T07:36:26.798Z,46.55
2018-02-10T07:38:53.371Z,48.40
2018-02-10T07:41:19.954Z,48.33
2018-02-10T07:43:46.847Z,48.42
2018-02-10T07:46:13.426Z,48.22
2018-02-10T07:48:40.006Z,46.85
2018-02-10T07:51:06.656Z,48.30
2018-02-10T07:53:33.248Z,46.20
2018-02-10T07:55:59.827Z,52.05
2018-02-10T07:58:26.726Z,48.42
2018-02-10T08:00:53.310Z,48.92
2018-02-10T08:03:19.891Z,43.63
2018-02-10T08:05:46.496Z,46.97
2018-02-10T08:08:13.094Z,44.22
2018-02-10T08:10:39.685Z,45.38
2018-02-10T08:13:06.375Z,49.22
2018-02-10T08:15:32.969Z,48.97
2018-02-10T08:17:59.603Z,48.85
2018-02-10T08:20:26.316Z,46.33
2018-02-10T08:22:52.838Z,46.97
2018-02-10T08:25:19.533Z,47.05
2018-02-10T08:27:46.118Z,48.63
2018-02-10T08:30:12.702Z,47.83
2018-02-10T08:32:39.695Z,45.50
2018-02-10T08:35:06.250Z,47.28
2018-02-10T08:37:32.835Z,49.28
2018-02-10T08:39:59.542Z,48.42
2018-02-10T08:42:26.114Z,47.80
2018-02-10T08:44:52.695Z,52.90
2018-02-10T08:47:19.306Z,46.47
2018-02-10T08:49:45.888Z,45.20
2018-02-10T08:52:12.471Z,47.35
2018-02-10T08:54:39.287Z,46.78
2018-02-10T08:57:05.869Z,45.58
2018-02-10T08:59:32.454Z,44.58
2018-02-10T09:01:59.303Z,48.60
2018-02-10T09:04:25.887Z,44.95
2018-02-10T09:06:52.474Z,48.20
2018-02-10T09:09:19.308Z,47.08
2018-02-10T09:11:45.895Z,43.90
2018-02-10T09:14:12.484Z,44.05
2018-02-10T09:16:39.198Z,46.08
2018-02-10T09:19:05.782Z,42.55
2018-02-10T09:21:32.369Z,45.12
2018-02-10T09:23:58.990Z,45.28
2018-02-10T09:26:25.567Z,45.05
2018-02-10T09:28:52.151Z,46.63
2018-02-10T09:31:18.758Z,47.78
2018-02-10T09:33:45.342Z,45.20
2018-02-10T09:36:11.928Z,49.97
2018-02-10T09:38:38.531Z,49.28
2018-02-10T09:41:05.114Z,45.15
2018-02-10T09:43:31.698Z,47.47
2018-02-10T09:45:58.432Z,47.70
2018-02-10T09:48:24.999Z,44.47
2018-02-10T09:50:51.607Z,47.13
2018-02-10T09:53:18.223Z,45.78
2018-02-10T09:55:45.646Z,48.45
2018-02-10T09:58:12.235Z,56.85
2018-02-10T10:00:38.863Z,72.65
2018-02-10T10:03:05.455Z,68.10
2018-02-10T10:05:32.039Z,50.33
2018-02-10T10:07:58.662Z,46.83
2018-02-10T10:10:25.251Z,45.07
2018-02-10T10:12:51.973Z,43.83
2018-02-10T10:15:18.710Z,44.93
2018-02-10T10:17:45.299Z,47.40
2018-02-10T10:20:11.881Z,43.87
2018-02-10T10:22:38.456Z,42.70
2018-02-10T10:25:05.035Z,44.97
2018-02-10T10:27:31.727Z,47.07
2018-02-10T10:29:58.331Z,45.50
2018-02-10T10:32:24.908Z,44.07
2018-02-10T10:34:51.491Z,46.53
2018-02-10T10:37:18.082Z,48.40
2018-02-10T10:39:44.663Z,44.27
2018-02-10T10:42:11.246Z,44.73
2018-02-10T10:44:37.840Z,43.70
2018-02-10T10:47:04.430Z,42.30
2018-02-10T10:49:31.002Z,41.57
2018-02-10T10:51:57.590Z,41.13
2018-02-10T10:54:24.364Z,43.40
2018-02-10T10:56:50.952Z,40.77
2018-02-10T10:59:17.561Z,41.03
2018-02-10T11:01:44.144Z,38.77
2018-02-10T11:04:10.892Z,40.93
2018-02-10T11:06:38.366Z,39.17
2018-02-10T11:09:04.986Z,41.07
2018-02-10T11:11:31.855Z,42.10
2018-02-10T11:13:58.451Z,39.37
2018-02-10T11:16:25.046Z,40.93
2018-02-10T11:18:51.671Z,38.00
2018-02-10T11:21:18.294Z,37.87
2018-02-10T11:23:44.894Z,40.97
2018-02-10T11:26:11.651Z,38.47
2018-02-10T11:28:38.235Z,39.40
2018-02-10T11:31:04.827Z,39.10
2018-02-10T11:33:31.492Z,38.87
2018-02-10T11:35:58.030Z,37.47
2018-02-10T11:38:24.619Z,35.63
2018-02-10T11:40:51.310Z,35.20
2018-02-10T11:43:17.874Z,34.60
2018-02-10T11:45:44.446Z,33.83
2018-02-10T11:48:11.139Z,35.73
2018-02-10T11:50:37.722Z,31.30
2018-02-10T11:53:04.303Z,32.40
2018-02-10T11:55:30.898Z,35.93
2018-02-10T11:57:57.484Z,34.40
2018-02-10T12:00:24.058Z,33.33
2018-02-10T12:02:50.676Z,31.60
2018-02-10T12:05:17.254Z,29.33
2018-02-10T12:07:43.822Z,30.10
2018-02-10T12:10:10.423Z,27.00
2018-02-10T12:12:36.998Z,27.60
2018-02-10T12:15:03.607Z,27.70
2018-02-10T12:17:30.208Z,25.83
2018-02-10T12:19:56.775Z,27.20
2018-02-10T12:22:23.381Z,27.67
2018-02-10T12:24:49.967Z,25.30
2018-02-10T12:27:16.546Z,26.63
2018-02-10T12:29:43.402Z,28.00
2018-02-10T12:32:11.296Z,27.83
2018-02-10T12:34:45.343Z,26.83
2018-02-10T12:37:19.171Z,26.17
2018-02-10T12:39:45.865Z,28.30
2018-02-10T12:42:12.442Z,25.03
2018-02-10T12:44:39.036Z,26.43
2018-02-10T12:47:05.882Z,24.73
2018-02-10T12:49:32.474Z,25.40
2018-02-10T12:51:59.086Z,26.27
2018-02-10T12:54:26.011Z,25.70
2018-02-10T12:56:52.612Z,25.63
2018-02-10T12:59:19.203Z,25.10
2018-02-10T13:01:45.827Z,22.10
2018-02-10T13:04:12.409Z,22.77
2018-02-10T13:06:38.995Z,23.30
2018-02-10T13:09:05.704Z,20.57
2018-02-10T13:11:32.283Z,21.27
2018-02-10T13:13:58.878Z,18.90
2018-02-10T13:16:25.845Z,24.30
2018-02-10T13:18:52.407Z,20.73
2018-02-10T13:21:19.190Z,20.07
2018-02-10T13:23:45.767Z,21.00
2018-02-10T13:26:12.359Z,16.80
2018-02-10T13:28:38.961Z,20.20
2018-02-10T13:31:05.776Z,20.57
2018-02-10T13:33:32.303Z,20.73
2018-02-10T13:35:58.995Z,20.70
2018-02-10T13:38:25.579Z,23.07
2018-02-10T13:40:52.161Z,22.63
2018-02-10T13:43:19.023Z,24.90
2018-02-10T13:45:45.624Z,24.30
2018-02-10T13:48:18.640Z,24.67
2018-02-10T13:50:45.206Z,24.63
2018-02-10T13:53:11.794Z,24.80
2018-02-10T13:55:38.738Z,25.60
2018-02-10T13:58:05.318Z,26.30
2018-02-10T14:00:31.934Z,27.17
2018-02-10T14:02:58.512Z,24.87
2018-02-10T14:05:25.113Z,26.33
2018-02-10T14:07:51.696Z,27.30
2018-02-10T14:10:18.267Z,29.10
2018-02-10T14:12:44.879Z,25.13
2018-02-10T14:15:11.467Z,26.93
2018-02-10T14:17:38.163Z,27.47
2018-02-10T14:20:04.744Z,28.17
2018-02-10T14:22:31.402Z,28.93
2018-02-10T14:24:58.010Z,28.30
2018-02-10T14:27:24.611Z,26.07
2018-02-10T14:29:51.255Z,29.57
2018-02-10T14:32:18.084Z,26.90
2018-02-10T14:34:44.671Z,29.20
2018-02-10T14:37:11.403Z,27.27
2018-02-10T14:39:37.979Z,26.53
2018-02-10T14:42:04.562Z,24.57
2018-02-10T14:44:31.176Z,25.93
2018-02-10T14:46:57.751Z,24.50
2018-02-10T14:49:24.331Z,24.37
2018-02-10T14:51:51.094Z,27.27
2018-02-10T14:54:17.783Z,25.13
2018-02-10T14:56:44.356Z,29.70
2018-02-10T14:59:10.958Z,30.57
2018-02-10T15:01:37.612Z,28.90
2018-02-10T15:04:04.203Z,26.90
2018-02-10T15:06:31.089Z,26.57
2018-02-10T15:08:57.651Z,27.00
2018-02-10T15:11:24.253Z,26.87
2018-02-10T15:13:50.850Z,26.03
2018-02-10T15:16:17.531Z,24.70
2018-02-10T15:18:44.139Z,29.07
2018-02-10T15:21:10.741Z,27.43
2018-02-10T15:23:37.358Z,26.33
2018-02-10T15:26:03.962Z,26.17
2018-02-10T15:28:30.615Z,26.83
2018-02-10T15:31:03.459Z,24.93
2018-02-10T15:33:50.156Z,24.40
2018-02-10T15:36:17.070Z,23.87
2018-02-10T15:38:43.635Z,22.57
2018-02-10T15:41:10.235Z,24.37
2018-02-10T15:43:36.827Z,24.63
2018-02-10T15:46:03.501Z,23.27
2018-02-10T15:48:30.091Z,23.57
2018-02-10T15:50:56.730Z,25.33
2018-02-10T15:53:23.331Z,22.13
2018-02-10T15:55:49.955Z,20.92
2018-02-10T15:58:16.586Z,24.37
2018-02-10T16:00:43.179Z,23.83
2018-02-10T16:03:09.786Z,25.35
2018-02-10T16:05:36.683Z,26.05
2018-02-10T16:08:03.273Z,26.52
2018-02-10T16:10:29.874Z,26.37
2018-02-10T16:12:56.500Z,25.75
2018-02-10T16:15:23.123Z,27.00
2018-02-10T16:17:49.771Z,24.52
2018-02-10T16:20:16.374Z,24.83
2018-02-10T16:22:43.146Z,27.40
2018-02-10T16:25:09.744Z,24.55
2018-02-10T16:27:36.346Z,26.65
2018-02-10T16:30:03.294Z,27.35
2018-02-10T16:32:29.904Z,26.98
2018-02-10T16:34:56.493Z,27.67
2018-02-10T16:37:23.105Z,26.70
2018-02-10T16:39:49.680Z,27.15
2018-02-10T16:42:16.358Z,26.15
2018-02-10T16:44:42.980Z,28.98
2018-02-10T16:47:10.428Z,27.92
2018-02-10T16:49:37.347Z,24.70
2018-02-10T16:52:03.970Z,26.33
2018-02-10T16:54:30.556Z,28.25
2018-02-10T16:56:57.190Z,27.45
2018-02-10T16:59:23.781Z,25.50
2018-02-10T17:01:50.383Z,28.45
2018-02-10T17:04:17.031Z,26.50
2018-02-10T17:06:43.906Z,28.55
2018-02-10T17:09:10.605Z,27.73
2018-02-10T17:11:37.212Z,30.35
2018-02-10T17:14:03.812Z,27.48
2018-02-10T17:16:30.530Z,29.15
2018-02-10T17:18:57.106Z,30.10
2018-02-10T17:21:23.695Z,32.53
2018-02-10T17:23:50.551Z,29.10
2018-02-10T17:26:17.134Z,27.58
2018-02-10T17:28:43.724Z,30.23
2018-02-10T17:31:10.338Z,30.40
2018-02-10T17:33:36.944Z,35.63
2018-02-10T17:36:03.641Z,32.67
2018-02-10T17:38:30.258Z,32.55
2018-02-10T17:40:56.843Z,33.13
2018-02-10T17:43:23.422Z,31.35
2018-02-10T17:45:50.022Z,32.58
2018-02-10T17:48:16.603Z,33.75
2018-02-10T17:50:43.198Z,32.10
2018-02-10T17:53:10.189Z,32.00
2018-02-10T17:55:36.766Z,30.55
2018-02-10T17:58:03.349Z,32.65
2018-02-10T18:00:30.219Z,33.00
2018-02-10T18:02:57.672Z,30.60
2018-02-10T18:05:24.234Z,30.42
2018-02-10T18:07:50.839Z,28.35
2018-02-10T18:10:17.430Z,28.02
2018-02-10T18:15:17.087Z,30.15
2018-02-10T18:17:43.672Z,26.42
2018-02-10T18:20:10.254Z,28.87
2018-02-10T18:22:36.858Z,31.58
2018-02-10T18:25:03.435Z,31.80
2018-02-10T18:27:30.031Z,31.73
2018-02-10T18:29:57.511Z,30.70
2018-02-10T18:32:24.099Z,30.52
2018-02-10T18:34:50.687Z,29.40
2018-02-10T18:37:17.293Z,29.25
2018-02-10T18:39:43.875Z,27.77
2018-02-10T18:42:10.459Z,29.55
2018-02-10T18:44:37.315Z,29.12
2018-02-10T18:47:03.895Z,28.30
2018-02-10T18:49:30.473Z,30.67
2018-02-10T18:51:57.071Z,31.65
2018-02-10T18:54:23.659Z,30.10
2018-02-10T18:56:50.235Z,31.85
2018-02-10T18:59:17.126Z,31.52
2018-02-10T19:01:43.707Z,29.00
2018-02-10T19:04:10.281Z,30.20
2018-02-10T19:06:36.964Z,30.55
2018-02-10T19:09:03.549Z,32.08
2018-02-10T19:11:30.123Z,32.80
2018-02-10T19:13:56.702Z,34.95
2018-02-10T19:16:23.278Z,34.95
2018-02-10T19:18:49.899Z,34.70
2018-02-10T19:21:16.479Z,34.97
2018-02-10T19:23:43.062Z,32.97
2018-02-10T19:26:09.658Z,34.15
2018-02-10T19:28:36.246Z,38.65
2018-02-10T19:31:02.826Z,36.10
2018-02-10T19:33:29.697Z,32.50
2018-02-10T19:35:56.272Z,35.75
2018-02-10T19:38:22.855Z,33.00
2018-02-10T19:40:49.454Z,35.78
2018-02-10T19:43:16.040Z,35.58
2018-02-10T19:45:42.623Z,33.10
2018-02-10T19:48:09.535Z,36.47
2018-02-10T19:50:36.119Z,27.90
2018-02-10T19:53:02.692Z,31.65
2018-02-10T19:55:29.299Z,27.45
2018-02-10T19:57:55.874Z,26.25
2018-02-10T20:00:22.460Z,26.30
2018-02-10T20:02:49.054Z,24.63
2018-02-10T20:05:15.647Z,24.73
2018-02-10T20:07:42.235Z,25.33
2018-02-10T20:10:08.844Z,23.67
2018-02-10T20:12:35.426Z,25.10
2018-02-10T20:15:02.012Z,25.40
2018-02-10T20:17:28.611Z,24.87
2018-02-10T20:19:55.191Z,24.55
2018-02-10T20:22:21.775Z,23.85
2018-02-10T20:24:48.372Z,23.15
2018-02-10T20:27:14.942Z,25.75
2018-02-10T20:29:41.529Z,27.10
2018-02-10T20:32:08.121Z,26.55
2018-02-10T20:34:34.700Z,27.52
2018-02-10T20:37:01.282Z,28.42
2018-02-10T20:39:27.895Z,29.00
2018-02-10T20:41:54.489Z,27.25
2018-02-10T20:44:21.062Z,29.27
2018-02-10T20:46:47.676Z,25.08
2018-02-10T20:49:14.254Z,28.05
2018-02-10T20:51:40.851Z,30.08
2018-02-10T20:54:07.779Z,27.25
2018-02-10T20:56:34.355Z,25.00
2018-02-10T20:59:00.935Z,26.23
2018-02-10T21:01:27.538Z,28.35
2018-02-10T21:03:54.127Z,28.48
2018-02-10T21:06:20.712Z,28.10
2018-02-10T21:08:47.394Z,25.92
2018-02-10T21:11:13.979Z,30.05
2018-02-10T21:13:40.558Z,29.30
2018-02-10T21:16:07.163Z,32.42
2018-02-10T21:18:33.751Z,31.35
2018-02-10T21:21:00.335Z,31.02
2018-02-10T21:23:27.225Z,30.85
2018-02-10T21:25:53.790Z,29.75
2018-02-10T21:28:20.371Z,33.90
2018-02-10T21:30:47.325Z,32.90
2018-02-10T21:33:13.902Z,31.95
2018-02-10T21:35:40.494Z,31.37
2018-02-10T21:38:07.078Z,32.47
2018-02-10T21:40:33.667Z,35.75
2018-02-10T21:43:00.278Z,32.65
2018-02-10T21:45:26.864Z,33.65
2018-02-10T21:47:53.774Z,34.63
2018-02-10T21:50:20.366Z,33.40
2018-02-10T21:52:46.956Z,35.58
2018-02-10T21:55:13.556Z,32.38
2018-02-10T21:57:40.124Z,34.17
2018-02-10T22:00:06.955Z,31.77
2018-02-10T22:02:33.535Z,36.33
2018-02-10T22:05:00.150Z,34.08
2018-02-10T22:07:26.739Z,34.38
2018-02-10T22:09:53.338Z,35.70
2018-02-10T22:12:19.921Z,35.08
2018-02-10T22:14:46.509Z,33.25
2018-02-10T22:17:13.384Z,35.42
2018-02-10T22:19:39.987Z,34.95
2018-02-10T22:22:06.554Z,35.33
2018-02-10T22:24:33.175Z,32.78
2018-02-10T22:26:59.755Z,35.10
2018-02-10T22:29:26.355Z,35.42
2018-02-10T22:31:53.158Z,31.73
2018-02-10T22:34:19.839Z,36.20
2018-02-10T22:36:46.445Z,33.42
2018-02-10T22:39:13.019Z,32.45
2018-02-10T22:41:39.642Z,33.45
2018-02-10T22:44:06.218Z,34.05
2018-02-10T22:46:32.823Z,32.58
2018-02-10T22:48:59.459Z,33.13
2018-02-10T22:51:26.087Z,34.58
2018-02-10T22:53:52.670Z,34.45
2018-02-10T22:56:19.271Z,32.70
2018-02-10T22:58:45.850Z,35.70
2018-02-10T23:01:16.394Z,33.20
2018-02-10T23:03:44.573Z,31.67
2018-02-10T23:06:11.282Z,34.25
2018-02-10T23:08:37.859Z,31.05
2018-02-10T23:11:04.459Z,31.25
2018-02-10T23:13:31.039Z,31.27
2018-02-10T23:15:57.644Z,35.05
2018-02-10T23:18:24.232Z,32.88
2018-02-10T23:20:50.814Z,31.37
2018-02-10T23:23:17.400Z,30.58
2018-02-10T23:25:43.983Z,30.98
2018-02-10T23:28:10.592Z,32.65
2018-02-10T23:30:37.177Z,29.98
2018-02-10T23:33:03.763Z,31.45
2018-02-10T23:35:34.127Z,28.67
2018-02-10T23:38:00.712Z,28.48
2018-02-10T23:40:27.296Z,30.02
2018-02-10T23:42:53.907Z,29.08
2018-02-10T23:45:20.490Z,30.83
2018-02-10T23:47:47.075Z,30.83
2018-02-10T23:50:13.667Z,32.33
2018-02-10T23:52:40.246Z,29.90
2018-02-10T23:55:07.039Z,29.87
2018-02-10T23:57:33.978Z,29.40
